createdAt,value
2022-12-17T11:45:39.583Z,24.63
2022-12-17T11:51:16.111Z,19.80
2022-12-17T11:56:40.174Z,19.92
2022-12-17T12:02:03.057Z,18.80
2022-12-17T12:07:42.028Z,19.45
2022-12-17T12:13:05.094Z,22.40
2022-12-17T12:18:18.338Z,18.00
2022-12-17T12:23:41.923Z,21.38
2022-12-17T12:28:58.147Z,21.08
2022-12-17T12:34:19.896Z,21.10
2022-12-17T12:39:39.176Z,22.75
2022-12-17T12:45:22.015Z,20.55
2022-12-17T12:50:45.505Z,14.05
2022-12-17T12:56:01.286Z,16.73
2022-12-17T13:01:14.747Z,17.42
2022-12-17T13:06:07.816Z,16.17
2022-12-17T13:11:10.852Z,14.93
2022-12-17T13:16:26.074Z,17.13
2022-12-17T13:21:18.815Z,13.57
2022-12-17T13:26:40.349Z,25.23
2022-12-17T13:31:48.766Z,15.27
2022-12-17T13:37:20.437Z,15.60
2022-12-17T13:42:36.223Z,15.95
2022-12-17T13:47:31.557Z,15.98
2022-12-17T13:52:26.799Z,17.77
2022-12-17T13:57:39.305Z,24.88
2022-12-17T14:02:35.275Z,20.50
2022-12-17T14:07:29.965Z,17.98
2022-12-17T14:12:26.027Z,19.55
2022-12-17T14:17:42.953Z,16.45
2022-12-17T14:22:38.417Z,18.48
2022-12-17T14:27:36.600Z,20.48
2022-12-17T14:32:36.302Z,18.50
2022-12-17T14:37:29.536Z,17.17
2022-12-17T14:42:26.994Z,19.90
2022-12-17T14:47:34.111Z,15.73
2022-12-17T14:52:34.467Z,16.42
2022-12-17T14:57:27.398Z,15.23
2022-12-17T15:02:48.107Z,16.52
2022-12-17T15:07:41.830Z,18.65
2022-12-17T15:12:36.542Z,15.30
2022-12-17T15:17:31.115Z,19.65
2022-12-17T15:22:23.885Z,18.08
2022-12-17T15:27:17.875Z,20.95
2022-12-17T15:32:22.997Z,22.98
2022-12-17T15:37:18.799Z,26.30
2022-12-17T15:42:35.518Z,22.90
2022-12-17T15:47:29.610Z,20.42
2022-12-17T15:52:23.666Z,23.33
2022-12-17T15:57:18.690Z,22.52
2022-12-17T16:02:12.707Z,19.70
2022-12-17T16:07:06.342Z,19.75
2022-12-17T16:12:00.431Z,22.95
2022-12-17T16:16:53.159Z,27.17
2022-12-17T16:21:47.119Z,33.57
2022-12-17T16:26:39.629Z,25.70
2022-12-17T16:31:33.375Z,26.25
2022-12-17T16:36:27.014Z,30.42
2022-12-17T16:41:20.952Z,31.73
2022-12-17T16:46:32.187Z,32.22
2022-12-17T16:51:29.137Z,29.88
2022-12-17T16:56:24.822Z,32.55
2022-12-17T17:01:22.630Z,32.50
2022-12-17T17:06:17.485Z,34.95
2022-12-17T17:11:11.829Z,45.50
2022-12-17T17:16:04.846Z,49.67
2022-12-17T17:21:19.604Z,45.08
2022-12-17T17:26:15.283Z,41.53
2022-12-17T17:31:11.882Z,41.55
2022-12-17T17:36:11.011Z,37.90
2022-12-17T17:41:05.128Z,41.20
2022-12-17T17:46:15.522Z,43.13
2022-12-17T17:51:21.338Z,43.22
2022-12-17T18:01:30.856Z,48.42
2022-12-17T18:06:24.327Z,48.72
2022-12-17T18:11:23.089Z,39.13
2022-12-17T18:16:17.163Z,42.67
2022-12-17T18:26:10.494Z,44.65
2022-12-17T18:31:16.846Z,43.72
2022-12-17T18:36:17.354Z,41.25
2022-12-17T18:41:34.486Z,38.65
2022-12-17T18:46:29.192Z,43.03
2022-12-17T18:51:23.302Z,51.20
2022-12-17T19:01:26.739Z,43.13
2022-12-17T19:06:21.177Z,59.10
2022-12-17T19:11:16.346Z,64.43
2022-12-17T19:16:12.977Z,58.85
2022-12-17T19:21:07.765Z,59.72
2022-12-17T19:26:12.842Z,67.75
2022-12-17T19:31:07.485Z,82.55
2022-12-17T19:36:13.056Z,73.53
2022-12-17T19:41:12.634Z,62.60
2022-12-17T19:46:08.042Z,57.60
2022-12-17T19:51:01.146Z,53.78
2022-12-17T19:55:55.894Z,52.60
2022-12-17T20:00:50.096Z,51.22
2022-12-17T20:05:47.030Z,54.15
2022-12-17T20:10:40.825Z,61.05
2022-12-17T20:15:34.477Z,63.22
2022-12-17T20:20:28.928Z,60.17
2022-12-17T20:30:14.772Z,65.15
2022-12-17T20:40:02.838Z,58.20
2022-12-17T20:44:55.847Z,62.20
2022-12-17T20:49:50.125Z,57.55
2022-12-17T20:54:43.573Z,62.25
2022-12-17T21:04:29.678Z,55.00
2022-12-17T21:09:23.205Z,57.43
2022-12-17T21:14:17.529Z,56.42
2022-12-17T21:19:17.034Z,53.65
2022-12-17T21:24:10.848Z,54.60
2022-12-17T21:29:06.841Z,58.72
2022-12-17T21:34:01.967Z,58.60
2022-12-17T21:38:56.413Z,53.08
2022-12-17T21:43:53.706Z,58.75
2022-12-17T21:48:47.731Z,53.75
2022-12-17T21:53:44.152Z,54.80
2022-12-17T21:58:37.531Z,54.20
2022-12-17T22:03:31.371Z,56.40
2022-12-17T22:08:24.610Z,53.78
2022-12-17T22:13:37.366Z,45.70
2022-12-17T22:18:31.687Z,41.80
2022-12-17T22:23:25.631Z,38.70
2022-12-17T22:28:19.271Z,27.77
2022-12-17T22:33:36.938Z,22.15
2022-12-17T22:41:45.058Z,21.48
2022-12-17T22:44:45.005Z,21.77
2022-12-17T22:48:57.960Z,23.15
2022-12-17T22:53:52.277Z,22.42
2022-12-17T22:58:45.136Z,18.58
2022-12-17T23:08:32.903Z,18.95
2022-12-17T23:13:27.234Z,17.67
2022-12-17T23:18:21.248Z,17.50
2022-12-17T23:23:14.536Z,12.25
2022-12-17T23:28:06.897Z,12.07
2022-12-17T23:33:00.518Z,12.50
2022-12-17T23:37:54.362Z,11.65
2022-12-17T23:42:47.288Z,11.20
2022-12-17T23:47:41.449Z,15.15
2022-12-17T23:52:34.815Z,10.93
2022-12-17T23:57:28.235Z,9.85
